sensor_id;sensor_type;location;lat;lon;timestamp;temperature;humidity
75105;DHT22;64778;47.314;8.466;2022-12-07T00:01:08;1.70;90.70
75105;DHT22;64778;47.314;8.466;2022-12-07T00:03:36;1.70;90.70
75105;DHT22;64778;47.314;8.466;2022-12-07T00:06:02;1.70;90.80
75105;DHT22;64778;47.314;8.466;2022-12-07T00:08:28;1.70;90.70
75105;DHT22;64778;47.314;8.466;2022-12-07T00:11:04;1.60;90.70
75105;DHT22;64778;47.314;8.466;2022-12-07T00:13:31;1.60;90.80
75105;DHT22;64778;47.314;8.466;2022-12-07T00:16:04;1.50;90.90
75105;DHT22;64778;47.314;8.466;2022-12-07T00:18:30;1.50;91.10
75105;DHT22;64778;47.314;8.466;2022-12-07T00:21:12;1.50;91.00
75105;DHT22;64778;47.314;8.466;2022-12-07T00:23:39;1.50;90.90
75105;DHT22;64778;47.314;8.466;2022-12-07T00:26:06;1.60;90.80
75105;DHT22;64778;47.314;8.466;2022-12-07T00:28:32;1.60;90.90
75105;DHT22;64778;47.314;8.466;2022-12-07T00:31:04;1.70;90.90
75105;DHT22;64778;47.314;8.466;2022-12-07T00:33:30;1.80;90.80
75105;DHT22;64778;47.314;8.466;2022-12-07T00:35:59;1.80;90.40
75105;DHT22;64778;47.314;8.466;2022-12-07T00:38:28;1.90;90.30
75105;DHT22;64778;47.314;8.466;2022-12-07T00:40:58;1.80;90.10
75105;DHT22;64778;47.314;8.466;2022-12-07T00:43:27;1.80;90.30
75105;DHT22;64778;47.314;8.466;2022-12-07T00:45:53;1.80;90.30
75105;DHT22;64778;47.314;8.466;2022-12-07T00:48:20;1.80;90.30
75105;DHT22;64778;47.314;8.466;2022-12-07T00:50:46;1.90;90.30
75105;DHT22;64778;47.314;8.466;2022-12-07T00:53:14;1.90;90.30
75105;DHT22;64778;47.314;8.466;2022-12-07T00:55:40;1.90;90.10
75105;DHT22;64778;47.314;8.466;2022-12-07T00:58:06;1.90;90.20
75105;DHT22;64778;47.314;8.466;2022-12-07T01:00:32;1.90;90.20
75105;DHT22;64778;47.314;8.466;2022-12-07T01:03:00;1.90;90.30
75105;DHT22;64778;47.314;8.466;2022-12-07T01:05:26;1.90;90.10
75105;DHT22;64778;47.314;8.466;2022-12-07T01:07:53;1.90;90.20
75105;DHT22;64778;47.314;8.466;2022-12-07T01:10:19;1.80;90.10
75105;DHT22;64778;47.314;8.466;2022-12-07T01:12:45;1.90;90.20
75105;DHT22;64778;47.314;8.466;2022-12-07T01:15:10;1.90;90.20
75105;DHT22;64778;47.314;8.466;2022-12-07T01:17:36;1.90;90.30
75105;DHT22;64778;47.314;8.466;2022-12-07T01:20:03;1.90;90.20
75105;DHT22;64778;47.314;8.466;2022-12-07T01:22:29;1.90;90.10
75105;DHT22;64778;47.314;8.466;2022-12-07T01:24:57;1.70;90.30
75105;DHT22;64778;47.314;8.466;2022-12-07T01:27:22;1.80;90.30
75105;DHT22;64778;47.314;8.466;2022-12-07T01:29:48;1.70;90.10
75105;DHT22;64778;47.314;8.466;2022-12-07T01:32:14;1.70;90.20
75105;DHT22;64778;47.314;8.466;2022-12-07T01:34:42;1.70;90.20
75105;DHT22;64778;47.314;8.466;2022-12-07T01:37:07;1.70;90.30
75105;DHT22;64778;47.314;8.466;2022-12-07T01:39:35;1.60;90.40
75105;DHT22;64778;47.314;8.466;2022-12-07T01:42:01;1.60;90.40
75105;DHT22;64778;47.314;8.466;2022-12-07T01:44:28;1.70;90.60
75105;DHT22;64778;47.314;8.466;2022-12-07T01:47:03;1.80;90.20
75105;DHT22;64778;47.314;8.466;2022-12-07T01:49:39;1.80;90.00
75105;DHT22;64778;47.314;8.466;2022-12-07T01:54:44;1.80;89.80
75105;DHT22;64778;47.314;8.466;2022-12-07T01:57:12;1.80;89.80
75105;DHT22;64778;47.314;8.466;2022-12-07T01:59:39;1.80;89.50
75105;DHT22;64778;47.314;8.466;2022-12-07T02:02:12;1.80;89.50
75105;DHT22;64778;47.314;8.466;2022-12-07T02:04:39;1.80;89.40
75105;DHT22;64778;47.314;8.466;2022-12-07T02:07:05;1.70;89.20
75105;DHT22;64778;47.314;8.466;2022-12-07T02:09:31;1.70;89.10
75105;DHT22;64778;47.314;8.466;2022-12-07T02:11:59;1.70;88.80
75105;DHT22;64778;47.314;8.466;2022-12-07T02:14:24;1.70;89.20
75105;DHT22;64778;47.314;8.466;2022-12-07T02:24:45;1.70;88.80
75105;DHT22;64778;47.314;8.466;2022-12-07T02:29:55;1.70;88.60
75105;DHT22;64778;47.314;8.466;2022-12-07T02:35:23;1.70;88.50
75105;DHT22;64778;47.314;8.466;2022-12-07T02:38:02;1.50;88.90
75105;DHT22;64778;47.314;8.466;2022-12-07T02:40:38;1.50;88.70
75105;DHT22;64778;47.314;8.466;2022-12-07T02:45:36;1.60;88.90
75105;DHT22;64778;47.314;8.466;2022-12-07T02:48:04;1.60;88.20
75105;DHT22;64778;47.314;8.466;2022-12-07T02:50:30;1.70;88.20
75105;DHT22;64778;47.314;8.466;2022-12-07T02:52:58;1.80;87.60
75105;DHT22;64778;47.314;8.466;2022-12-07T02:55:33;1.80;87.20
75105;DHT22;64778;47.314;8.466;2022-12-07T03:00:31;1.80;86.90
75105;DHT22;64778;47.314;8.466;2022-12-07T03:03:04;1.90;87.00
75105;DHT22;64778;47.314;8.466;2022-12-07T03:08:27;1.80;86.90
75105;DHT22;64778;47.314;8.466;2022-12-07T03:10:58;1.80;87.30
75105;DHT22;64778;47.314;8.466;2022-12-07T03:16:04;1.70;87.70
75105;DHT22;64778;47.314;8.466;2022-12-07T03:18:38;1.80;87.50
75105;DHT22;64778;47.314;8.466;2022-12-07T03:21:15;1.90;87.20
75105;DHT22;64778;47.314;8.466;2022-12-07T03:23:45;1.90;86.80
75105;DHT22;64778;47.314;8.466;2022-12-07T03:26:19;1.90;86.60
75105;DHT22;64778;47.314;8.466;2022-12-07T03:28:52;1.80;87.10
75105;DHT22;64778;47.314;8.466;2022-12-07T03:31:32;1.90;87.20
75105;DHT22;64778;47.314;8.466;2022-12-07T03:36:51;1.80;87.00
75105;DHT22;64778;47.314;8.466;2022-12-07T03:39:26;1.80;87.60
75105;DHT22;64778;47.314;8.466;2022-12-07T03:41:54;1.80;87.50
75105;DHT22;64778;47.314;8.466;2022-12-07T03:44:23;1.80;87.70
75105;DHT22;64778;47.314;8.466;2022-12-07T03:47:21;1.90;87.30
75105;DHT22;64778;47.314;8.466;2022-12-07T03:49:50;1.80;87.20
75105;DHT22;64778;47.314;8.466;2022-12-07T03:52:51;1.90;87.30
75105;DHT22;64778;47.314;8.466;2022-12-07T03:55:27;1.90;86.90
75105;DHT22;64778;47.314;8.466;2022-12-07T03:58:05;1.90;87.30
75105;DHT22;64778;47.314;8.466;2022-12-07T04:00:32;2.00;87.60
75105;DHT22;64778;47.314;8.466;2022-12-07T04:02:58;2.00;86.60
75105;DHT22;64778;47.314;8.466;2022-12-07T04:05:24;2.10;86.40
75105;DHT22;64778;47.314;8.466;2022-12-07T04:07:49;2.10;86.20
75105;DHT22;64778;47.314;8.466;2022-12-07T04:10:15;2.10;86.20
75105;DHT22;64778;47.314;8.466;2022-12-07T04:12:43;2.20;85.90
75105;DHT22;64778;47.314;8.466;2022-12-07T04:15:09;2.20;85.30
75105;DHT22;64778;47.314;8.466;2022-12-07T04:17:35;2.20;85.80
75105;DHT22;64778;47.314;8.466;2022-12-07T04:20:00;2.30;85.90
75105;DHT22;64778;47.314;8.466;2022-12-07T04:22:26;2.20;85.50
75105;DHT22;64778;47.314;8.466;2022-12-07T04:24:52;2.10;85.40
75105;DHT22;64778;47.314;8.466;2022-12-07T04:27:20;2.00;86.20
75105;DHT22;64778;47.314;8.466;2022-12-07T04:29:46;2.00;86.20
75105;DHT22;64778;47.314;8.466;2022-12-07T04:32:14;1.90;86.30
75105;DHT22;64778;47.314;8.466;2022-12-07T04:34:39;1.90;86.50
75105;DHT22;64778;47.314;8.466;2022-12-07T04:37:05;2.00;86.50
75105;DHT22;64778;47.314;8.466;2022-12-07T04:39:33;2.00;86.20
75105;DHT22;64778;47.314;8.466;2022-12-07T04:42:02;2.00;86.20
75105;DHT22;64778;47.314;8.466;2022-12-07T04:44:30;2.10;86.00
75105;DHT22;64778;47.314;8.466;2022-12-07T04:46:58;2.10;86.10
75105;DHT22;64778;47.314;8.466;2022-12-07T04:49:24;2.20;86.10
75105;DHT22;64778;47.314;8.466;2022-12-07T04:51:50;2.10;86.10
75105;DHT22;64778;47.314;8.466;2022-12-07T04:54:17;2.20;86.10
75105;DHT22;64778;47.314;8.466;2022-12-07T04:56:42;2.20;86.00
75105;DHT22;64778;47.314;8.466;2022-12-07T04:59:10;2.20;86.20
75105;DHT22;64778;47.314;8.466;2022-12-07T05:01:39;2.20;85.80
75105;DHT22;64778;47.314;8.466;2022-12-07T05:04:04;2.20;85.60
75105;DHT22;64778;47.314;8.466;2022-12-07T05:06:30;2.20;85.50
75105;DHT22;64778;47.314;8.466;2022-12-07T05:09:00;2.30;85.80
75105;DHT22;64778;47.314;8.466;2022-12-07T05:11:26;2.30;86.00
75105;DHT22;64778;47.314;8.466;2022-12-07T05:14:24;2.40;86.30
75105;DHT22;64778;47.314;8.466;2022-12-07T05:16:51;2.40;86.10
75105;DHT22;64778;47.314;8.466;2022-12-07T05:19:18;2.40;85.60
75105;DHT22;64778;47.314;8.466;2022-12-07T05:21:44;2.40;85.60
75105;DHT22;64778;47.314;8.466;2022-12-07T05:24:15;2.50;85.50
75105;DHT22;64778;47.314;8.466;2022-12-07T05:26:41;2.50;85.10
75105;DHT22;64778;47.314;8.466;2022-12-07T05:29:09;2.60;84.90
75105;DHT22;64778;47.314;8.466;2022-12-07T05:31:38;2.60;84.40
75105;DHT22;64778;47.314;8.466;2022-12-07T05:34:03;2.60;84.40
75105;DHT22;64778;47.314;8.466;2022-12-07T05:36:29;2.60;84.20
75105;DHT22;64778;47.314;8.466;2022-12-07T05:38:57;2.60;83.90
75105;DHT22;64778;47.314;8.466;2022-12-07T05:41:23;2.60;84.40
75105;DHT22;64778;47.314;8.466;2022-12-07T05:44:07;2.60;84.40
75105;DHT22;64778;47.314;8.466;2022-12-07T05:46:33;2.60;84.70
75105;DHT22;64778;47.314;8.466;2022-12-07T05:49:07;2.60;84.80
75105;DHT22;64778;47.314;8.466;2022-12-07T05:51:35;2.60;84.50
75105;DHT22;64778;47.314;8.466;2022-12-07T05:54:00;2.60;84.60
75105;DHT22;64778;47.314;8.466;2022-12-07T05:56:26;2.60;84.50
75105;DHT22;64778;47.314;8.466;2022-12-07T05:58:54;2.60;84.50
75105;DHT22;64778;47.314;8.466;2022-12-07T06:01:40;2.60;84.80
75105;DHT22;64778;47.314;8.466;2022-12-07T06:04:09;2.70;85.10
75105;DHT22;64778;47.314;8.466;2022-12-07T06:06:37;2.70;85.00
75105;DHT22;64778;47.314;8.466;2022-12-07T06:09:04;2.70;84.80
75105;DHT22;64778;47.314;8.466;2022-12-07T06:11:29;2.60;84.50
75105;DHT22;64778;47.314;8.466;2022-12-07T06:14:13;2.60;84.30
75105;DHT22;64778;47.314;8.466;2022-12-07T06:16:39;2.60;84.30
75105;DHT22;64778;47.314;8.466;2022-12-07T06:19:07;2.60;83.80
75105;DHT22;64778;47.314;8.466;2022-12-07T06:21:35;2.60;83.70
75105;DHT22;64778;47.314;8.466;2022-12-07T06:24:01;2.60;83.80
75105;DHT22;64778;47.314;8.466;2022-12-07T06:26:27;2.60;83.70
75105;DHT22;64778;47.314;8.466;2022-12-07T06:28:52;2.60;84.00
75105;DHT22;64778;47.314;8.466;2022-12-07T06:31:20;2.60;84.10
75105;DHT22;64778;47.314;8.466;2022-12-07T06:33:46;2.70;84.40
75105;DHT22;64778;47.314;8.466;2022-12-07T06:36:11;2.70;84.90
75105;DHT22;64778;47.314;8.466;2022-12-07T06:38:39;2.70;85.30
75105;DHT22;64778;47.314;8.466;2022-12-07T06:41:08;2.70;85.20
75105;DHT22;64778;47.314;8.466;2022-12-07T06:43:33;2.70;85.50
75105;DHT22;64778;47.314;8.466;2022-12-07T06:45:59;2.70;85.20
75105;DHT22;64778;47.314;8.466;2022-12-07T06:48:25;2.70;85.30
75105;DHT22;64778;47.314;8.466;2022-12-07T06:50:50;2.70;85.40
75105;DHT22;64778;47.314;8.466;2022-12-07T06:53:16;2.70;85.10
75105;DHT22;64778;47.314;8.466;2022-12-07T06:55:42;2.70;85.10
75105;DHT22;64778;47.314;8.466;2022-12-07T06:58:07;2.80;85.00
75105;DHT22;64778;47.314;8.466;2022-12-07T07:00:33;2.80;84.80
75105;DHT22;64778;47.314;8.466;2022-12-07T07:03:02;2.80;84.20
75105;DHT22;64778;47.314;8.466;2022-12-07T07:05:30;2.90;84.40
75105;DHT22;64778;47.314;8.466;2022-12-07T07:07:58;2.80;84.00
75105;DHT22;64778;47.314;8.466;2022-12-07T07:10:26;2.80;84.20
75105;DHT22;64778;47.314;8.466;2022-12-07T07:12:54;2.80;84.10
75105;DHT22;64778;47.314;8.466;2022-12-07T07:15:19;2.80;84.00
75105;DHT22;64778;47.314;8.466;2022-12-07T07:17:45;2.80;84.30
75105;DHT22;64778;47.314;8.466;2022-12-07T07:20:11;2.90;84.40
75105;DHT22;64778;47.314;8.466;2022-12-07T07:22:37;2.90;84.50
75105;DHT22;64778;47.314;8.466;2022-12-07T07:25:03;2.90;84.40
75105;DHT22;64778;47.314;8.466;2022-12-07T07:27:29;2.90;84.40
75105;DHT22;64778;47.314;8.466;2022-12-07T07:29:54;3.00;84.10
75105;DHT22;64778;47.314;8.466;2022-12-07T07:32:20;2.90;84.60
75105;DHT22;64778;47.314;8.466;2022-12-07T07:34:47;2.90;84.20
75105;DHT22;64778;47.314;8.466;2022-12-07T07:37:13;2.90;84.50
75105;DHT22;64778;47.314;8.466;2022-12-07T07:39:41;2.90;85.00
75105;DHT22;64778;47.314;8.466;2022-12-07T07:42:07;2.80;85.20
75105;DHT22;64778;47.314;8.466;2022-12-07T07:44:35;2.90;85.40
75105;DHT22;64778;47.314;8.466;2022-12-07T07:47:03;2.90;85.40
75105;DHT22;64778;47.314;8.466;2022-12-07T07:49:29;2.90;85.10
75105;DHT22;64778;47.314;8.466;2022-12-07T07:51:57;2.90;84.60
75105;DHT22;64778;47.314;8.466;2022-12-07T07:54:25;2.90;84.70
75105;DHT22;64778;47.314;8.466;2022-12-07T07:56:52;2.90;84.80
75105;DHT22;64778;47.314;8.466;2022-12-07T07:59:18;2.90;84.90
75105;DHT22;64778;47.314;8.466;2022-12-07T08:01:46;2.90;84.90
75105;DHT22;64778;47.314;8.466;2022-12-07T08:04:11;3.00;84.60
75105;DHT22;64778;47.314;8.466;2022-12-07T08:06:37;2.90;84.80
75105;DHT22;64778;47.314;8.466;2022-12-07T08:09:03;2.90;85.30
75105;DHT22;64778;47.314;8.466;2022-12-07T08:11:30;2.90;85.80
75105;DHT22;64778;47.314;8.466;2022-12-07T08:13:56;2.90;85.80
75105;DHT22;64778;47.314;8.466;2022-12-07T08:16:21;2.90;85.70
75105;DHT22;64778;47.314;8.466;2022-12-07T08:18:49;2.90;85.90
75105;DHT22;64778;47.314;8.466;2022-12-07T08:21:15;2.90;85.40
75105;DHT22;64778;47.314;8.466;2022-12-07T08:23:41;2.90;85.60
75105;DHT22;64778;47.314;8.466;2022-12-07T08:26:09;3.00;85.80
75105;DHT22;64778;47.314;8.466;2022-12-07T08:28:35;3.00;85.70
75105;DHT22;64778;47.314;8.466;2022-12-07T08:31:06;3.00;85.90
75105;DHT22;64778;47.314;8.466;2022-12-07T08:33:32;2.90;86.50
75105;DHT22;64778;47.314;8.466;2022-12-07T08:36:02;3.00;86.70
75105;DHT22;64778;47.314;8.466;2022-12-07T08:38:31;3.00;86.70
75105;DHT22;64778;47.314;8.466;2022-12-07T08:40:58;3.00;86.70
75105;DHT22;64778;47.314;8.466;2022-12-07T08:43:24;2.90;86.10
75105;DHT22;64778;47.314;8.466;2022-12-07T08:45:56;2.90;86.00
75105;DHT22;64778;47.314;8.466;2022-12-07T08:48:28;2.80;86.30
75105;DHT22;64778;47.314;8.466;2022-12-07T08:50:53;2.70;86.60
75105;DHT22;64778;47.314;8.466;2022-12-07T08:53:24;2.70;86.90
75105;DHT22;64778;47.314;8.466;2022-12-07T08:55:52;2.70;87.20
75105;DHT22;64778;47.314;8.466;2022-12-07T08:58:17;2.60;86.60
75105;DHT22;64778;47.314;8.466;2022-12-07T09:00:45;2.70;87.80
75105;DHT22;64778;47.314;8.466;2022-12-07T09:03:18;2.80;87.70
75105;DHT22;64778;47.314;8.466;2022-12-07T09:05:44;2.90;87.40
75105;DHT22;64778;47.314;8.466;2022-12-07T09:08:10;2.90;86.80
75105;DHT22;64778;47.314;8.466;2022-12-07T09:10:36;2.90;86.70
75105;DHT22;64778;47.314;8.466;2022-12-07T09:13:01;2.80;86.60
75105;DHT22;64778;47.314;8.466;2022-12-07T09:15:30;2.70;87.20
75105;DHT22;64778;47.314;8.466;2022-12-07T09:17:56;2.50;88.60
75105;DHT22;64778;47.314;8.466;2022-12-07T09:20:22;2.60;87.80
75105;DHT22;64778;47.314;8.466;2022-12-07T09:22:48;2.50;88.40
75105;DHT22;64778;47.314;8.466;2022-12-07T09:25:14;2.50;88.90
75105;DHT22;64778;47.314;8.466;2022-12-07T09:27:39;2.60;88.90
75105;DHT22;64778;47.314;8.466;2022-12-07T09:30:10;2.80;88.00
75105;DHT22;64778;47.314;8.466;2022-12-07T09:32:38;2.90;87.70
75105;DHT22;64778;47.314;8.466;2022-12-07T09:35:04;3.00;88.00
75105;DHT22;64778;47.314;8.466;2022-12-07T09:37:30;3.00;87.50
75105;DHT22;64778;47.314;8.466;2022-12-07T09:40:03;3.00;87.70
75105;DHT22;64778;47.314;8.466;2022-12-07T09:42:31;3.10;87.60
75105;DHT22;64778;47.314;8.466;2022-12-07T09:45:00;3.10;87.60
75105;DHT22;64778;47.314;8.466;2022-12-07T09:47:29;3.20;87.20
75105;DHT22;64778;47.314;8.466;2022-12-07T09:49:55;3.20;86.70
75105;DHT22;64778;47.314;8.466;2022-12-07T09:52:28;3.30;86.70
75105;DHT22;64778;47.314;8.466;2022-12-07T09:54:56;3.30;86.80
75105;DHT22;64778;47.314;8.466;2022-12-07T09:57:28;3.30;87.10
75105;DHT22;64778;47.314;8.466;2022-12-07T10:00:00;3.30;87.30
75105;DHT22;64778;47.314;8.466;2022-12-07T10:02:47;3.40;87.10
75105;DHT22;64778;47.314;8.466;2022-12-07T10:05:24;3.40;87.40
75105;DHT22;64778;47.314;8.466;2022-12-07T10:07:51;3.40;87.50
75105;DHT22;64778;47.314;8.466;2022-12-07T10:10:34;3.50;86.90
75105;DHT22;64778;47.314;8.466;2022-12-07T10:13:18;3.50;87.00
75105;DHT22;64778;47.314;8.466;2022-12-07T10:15:54;3.60;86.80
75105;DHT22;64778;47.314;8.466;2022-12-07T10:18:28;3.60;86.60
75105;DHT22;64778;47.314;8.466;2022-12-07T10:23:33;3.60;85.60
75105;DHT22;64778;47.314;8.466;2022-12-07T10:26:02;3.60;85.40
75105;DHT22;64778;47.314;8.466;2022-12-07T10:28:44;3.70;85.70
75105;DHT22;64778;47.314;8.466;2022-12-07T10:31:19;3.70;85.90
75105;DHT22;64778;47.314;8.466;2022-12-07T10:33:59;3.80;85.80
75105;DHT22;64778;47.314;8.466;2022-12-07T10:36:26;3.80;85.50
75105;DHT22;64778;47.314;8.466;2022-12-07T10:38:58;4.00;85.60
75105;DHT22;64778;47.314;8.466;2022-12-07T10:41:26;4.00;85.80
75105;DHT22;64778;47.314;8.466;2022-12-07T10:43:54;4.10;85.90
75105;DHT22;64778;47.314;8.466;2022-12-07T10:46:46;4.20;84.90
75105;DHT22;64778;47.314;8.466;2022-12-07T10:55:14;4.40;84.10
75105;DHT22;64778;47.314;8.466;2022-12-07T11:00:26;4.40;84.80
75105;DHT22;64778;47.314;8.466;2022-12-07T11:03:03;4.50;83.90
75105;DHT22;64778;47.314;8.466;2022-12-07T11:11:33;4.50;81.40
75105;DHT22;64778;47.314;8.466;2022-12-07T11:16:56;4.50;81.30
75105;DHT22;64778;47.314;8.466;2022-12-07T11:28:39;4.70;80.80
75105;DHT22;64778;47.314;8.466;2022-12-07T11:31:17;4.60;80.20
75105;DHT22;64778;47.314;8.466;2022-12-07T11:33:47;4.50;81.60
75105;DHT22;64778;47.314;8.466;2022-12-07T11:38:55;4.10;84.00
75105;DHT22;64778;47.314;8.466;2022-12-07T11:41:27;4.10;84.10
75105;DHT22;64778;47.314;8.466;2022-12-07T11:46:22;4.00;85.00
75105;DHT22;64778;47.314;8.466;2022-12-07T11:51:26;4.10;84.40
75105;DHT22;64778;47.314;8.466;2022-12-07T11:54:18;4.20;83.60
75105;DHT22;64778;47.314;8.466;2022-12-07T11:56:50;4.30;83.00
75105;DHT22;64778;47.314;8.466;2022-12-07T11:59:27;4.30;83.60
75105;DHT22;64778;47.314;8.466;2022-12-07T12:02:03;4.30;83.70
75105;DHT22;64778;47.314;8.466;2022-12-07T12:05:12;4.40;82.80
75105;DHT22;64778;47.314;8.466;2022-12-07T12:07:34;4.40;83.20
75105;DHT22;64778;47.314;8.466;2022-12-07T12:13:06;4.30;82.40
75105;DHT22;64778;47.314;8.466;2022-12-07T12:18:31;4.20;83.00
75105;DHT22;64778;47.314;8.466;2022-12-07T12:21:22;4.10;83.20
75105;DHT22;64778;47.314;8.466;2022-12-07T12:24:00;4.00;83.60
75105;DHT22;64778;47.314;8.466;2022-12-07T12:26:32;3.90;83.80
75105;DHT22;64778;47.314;8.466;2022-12-07T12:29:01;4.00;83.60
75105;DHT22;64778;47.314;8.466;2022-12-07T12:34:03;4.00;83.60
75105;DHT22;64778;47.314;8.466;2022-12-07T12:47:38;3.60;83.70
75105;DHT22;64778;47.314;8.466;2022-12-07T12:50:21;3.70;84.30
75105;DHT22;64778;47.314;8.466;2022-12-07T12:52:54;3.90;84.30
75105;DHT22;64778;47.314;8.466;2022-12-07T13:00:46;4.10;83.50
75105;DHT22;64778;47.314;8.466;2022-12-07T13:03:26;4.10;83.40
75105;DHT22;64778;47.314;8.466;2022-12-07T13:08:49;4.20;82.80
75105;DHT22;64778;47.314;8.466;2022-12-07T13:11:28;4.30;83.20
75105;DHT22;64778;47.314;8.466;2022-12-07T13:16:59;4.30;81.50
75105;DHT22;64778;47.314;8.466;2022-12-07T13:27:25;4.30;81.40
75105;DHT22;64778;47.314;8.466;2022-12-07T13:29:52;4.40;81.20
75105;DHT22;64778;47.314;8.466;2022-12-07T13:32:24;4.40;81.80
75105;DHT22;64778;47.314;8.466;2022-12-07T13:34:51;4.40;81.00
75105;DHT22;64778;47.314;8.466;2022-12-07T13:37:29;4.50;81.20
75105;DHT22;64778;47.314;8.466;2022-12-07T13:40:20;4.50;80.60
75105;DHT22;64778;47.314;8.466;2022-12-07T13:42:47;4.60;79.80
75105;DHT22;64778;47.314;8.466;2022-12-07T13:45:25;4.60;80.70
75105;DHT22;64778;47.314;8.466;2022-12-07T13:51:28;4.80;79.70
75105;DHT22;64778;47.314;8.466;2022-12-07T13:53:59;4.70;79.80
75105;DHT22;64778;47.314;8.466;2022-12-07T13:56:31;4.80;79.80
75105;DHT22;64778;47.314;8.466;2022-12-07T13:58:57;4.80;78.50
75105;DHT22;64778;47.314;8.466;2022-12-07T14:01:24;4.90;78.90
75105;DHT22;64778;47.314;8.466;2022-12-07T14:03:50;4.80;78.90
75105;DHT22;64778;47.314;8.466;2022-12-07T14:06:17;4.80;78.60
75105;DHT22;64778;47.314;8.466;2022-12-07T14:08:44;4.80;79.10
75105;DHT22;64778;47.314;8.466;2022-12-07T14:11:17;4.70;78.10
75105;DHT22;64778;47.314;8.466;2022-12-07T14:13:58;4.70;77.60
75105;DHT22;64778;47.314;8.466;2022-12-07T14:16:36;4.70;78.00
75105;DHT22;64778;47.314;8.466;2022-12-07T14:19:45;4.70;77.30
75105;DHT22;64778;47.314;8.466;2022-12-07T14:22:36;4.80;77.50
75105;DHT22;64778;47.314;8.466;2022-12-07T14:25:21;4.80;77.40
75105;DHT22;64778;47.314;8.466;2022-12-07T14:30:22;4.80;75.40
75105;DHT22;64778;47.314;8.466;2022-12-07T14:32:52;4.80;75.40
75105;DHT22;64778;47.314;8.466;2022-12-07T14:35:20;4.70;75.00
75105;DHT22;64778;47.314;8.466;2022-12-07T14:37:48;4.60;76.30
75105;DHT22;64778;47.314;8.466;2022-12-07T14:40:26;4.60;76.60
75105;DHT22;64778;47.314;8.466;2022-12-07T14:43:04;4.60;76.10
75105;DHT22;64778;47.314;8.466;2022-12-07T14:45:32;4.60;77.00
75105;DHT22;64778;47.314;8.466;2022-12-07T14:48:00;4.60;76.90
75105;DHT22;64778;47.314;8.466;2022-12-07T14:50:29;4.60;76.40
75105;DHT22;64778;47.314;8.466;2022-12-07T14:53:09;4.60;75.80
75105;DHT22;64778;47.314;8.466;2022-12-07T14:55:38;4.50;76.60
75105;DHT22;64778;47.314;8.466;2022-12-07T14:58:15;4.50;77.60
75105;DHT22;64778;47.314;8.466;2022-12-07T15:00:42;4.50;77.00
75105;DHT22;64778;47.314;8.466;2022-12-07T15:03:07;4.50;77.60
75105;DHT22;64778;47.314;8.466;2022-12-07T15:05:35;4.50;77.20
75105;DHT22;64778;47.314;8.466;2022-12-07T15:08:02;4.50;77.80
75105;DHT22;64778;47.314;8.466;2022-12-07T15:10:28;4.40;78.20
75105;DHT22;64778;47.314;8.466;2022-12-07T15:12:57;4.40;78.30
75105;DHT22;64778;47.314;8.466;2022-12-07T15:15:43;4.30;77.70
75105;DHT22;64778;47.314;8.466;2022-12-07T15:18:08;4.30;78.00
75105;DHT22;64778;47.314;8.466;2022-12-07T15:20:34;4.20;78.10
75105;DHT22;64778;47.314;8.466;2022-12-07T15:23:02;4.20;79.00
75105;DHT22;64778;47.314;8.466;2022-12-07T15:25:27;4.10;79.40
75105;DHT22;64778;47.314;8.466;2022-12-07T15:27:53;4.10;79.90
75105;DHT22;64778;47.314;8.466;2022-12-07T15:30:21;4.00;80.00
75105;DHT22;64778;47.314;8.466;2022-12-07T15:32:51;4.00;80.00
75105;DHT22;64778;47.314;8.466;2022-12-07T15:35:17;3.90;80.40
75105;DHT22;64778;47.314;8.466;2022-12-07T15:37:42;4.00;80.80
75105;DHT22;64778;47.314;8.466;2022-12-07T15:40:11;4.00;80.50
75105;DHT22;64778;47.314;8.466;2022-12-07T15:42:37;4.00;81.10
75105;DHT22;64778;47.314;8.466;2022-12-07T15:45:06;4.00;82.10
75105;DHT22;64778;47.314;8.466;2022-12-07T15:47:38;3.90;82.20
75105;DHT22;64778;47.314;8.466;2022-12-07T15:50:08;3.80;82.60
75105;DHT22;64778;47.314;8.466;2022-12-07T15:52:34;3.80;82.80
75105;DHT22;64778;47.314;8.466;2022-12-07T15:55:03;3.80;82.30
75105;DHT22;64778;47.314;8.466;2022-12-07T15:57:30;3.80;81.80
75105;DHT22;64778;47.314;8.466;2022-12-07T15:59:56;3.80;81.80
75105;DHT22;64778;47.314;8.466;2022-12-07T16:02:24;3.80;82.00
75105;DHT22;64778;47.314;8.466;2022-12-07T16:04:50;3.80;82.20
75105;DHT22;64778;47.314;8.466;2022-12-07T16:07:16;3.70;82.20
75105;DHT22;64778;47.314;8.466;2022-12-07T16:09:43;3.70;82.40
75105;DHT22;64778;47.314;8.466;2022-12-07T16:12:09;3.70;82.60
75105;DHT22;64778;47.314;8.466;2022-12-07T16:14:42;3.70;82.60
75105;DHT22;64778;47.314;8.466;2022-12-07T16:17:11;3.70;82.70
75105;DHT22;64778;47.314;8.466;2022-12-07T16:19:37;3.60;83.40
75105;DHT22;64778;47.314;8.466;2022-12-07T16:22:03;3.50;82.90
75105;DHT22;64778;47.314;8.466;2022-12-07T16:24:33;3.40;82.60
75105;DHT22;64778;47.314;8.466;2022-12-07T16:27:01;3.40;82.70
75105;DHT22;64778;47.314;8.466;2022-12-07T16:29:27;3.40;83.10
75105;DHT22;64778;47.314;8.466;2022-12-07T16:31:57;3.30;82.90
75105;DHT22;64778;47.314;8.466;2022-12-07T16:34:23;3.30;83.00
75105;DHT22;64778;47.314;8.466;2022-12-07T16:36:48;3.40;83.10
75105;DHT22;64778;47.314;8.466;2022-12-07T16:39:14;3.30;83.60
75105;DHT22;64778;47.314;8.466;2022-12-07T16:41:40;3.30;83.70
75105;DHT22;64778;47.314;8.466;2022-12-07T16:44:07;3.30;84.00
75105;DHT22;64778;47.314;8.466;2022-12-07T16:46:36;3.30;84.00
75105;DHT22;64778;47.314;8.466;2022-12-07T16:49:02;3.30;83.90
75105;DHT22;64778;47.314;8.466;2022-12-07T16:51:28;3.30;83.50
75105;DHT22;64778;47.314;8.466;2022-12-07T16:53:56;3.20;84.10
75105;DHT22;64778;47.314;8.466;2022-12-07T16:56:24;3.20;84.60
75105;DHT22;64778;47.314;8.466;2022-12-07T16:58:51;3.20;85.10
75105;DHT22;64778;47.314;8.466;2022-12-07T17:01:19;3.20;85.00
75105;DHT22;64778;47.314;8.466;2022-12-07T17:03:47;3.20;85.10
75105;DHT22;64778;47.314;8.466;2022-12-07T17:06:23;3.20;85.20
75105;DHT22;64778;47.314;8.466;2022-12-07T17:08:50;3.20;85.20
75105;DHT22;64778;47.314;8.466;2022-12-07T17:11:24;3.20;85.10
75105;DHT22;64778;47.314;8.466;2022-12-07T17:13:50;3.30;85.20
75105;DHT22;64778;47.314;8.466;2022-12-07T17:16:35;3.20;85.20
75105;DHT22;64778;47.314;8.466;2022-12-07T17:19:04;3.20;85.40
75105;DHT22;64778;47.314;8.466;2022-12-07T17:21:31;3.30;85.30
75105;DHT22;64778;47.314;8.466;2022-12-07T17:23:58;3.30;85.20
75105;DHT22;64778;47.314;8.466;2022-12-07T17:26:28;3.20;85.10
75105;DHT22;64778;47.314;8.466;2022-12-07T17:28:54;3.20;85.00
75105;DHT22;64778;47.314;8.466;2022-12-07T17:31:23;3.10;85.20
75105;DHT22;64778;47.314;8.466;2022-12-07T17:33:49;3.10;85.30
75105;DHT22;64778;47.314;8.466;2022-12-07T17:36:23;3.10;85.30
75105;DHT22;64778;47.314;8.466;2022-12-07T17:38:49;3.10;85.50
75105;DHT22;64778;47.314;8.466;2022-12-07T17:41:26;3.10;85.30
75105;DHT22;64778;47.314;8.466;2022-12-07T17:44:16;3.10;85.30
75105;DHT22;64778;47.314;8.466;2022-12-07T17:46:44;3.10;85.50
75105;DHT22;64778;47.314;8.466;2022-12-07T17:49:11;3.10;85.50
75105;DHT22;64778;47.314;8.466;2022-12-07T17:51:41;3.00;85.60